Macaw Arrow — C6AT5 — position and weather

sailwx.info

Track history (hours):
 
Tides and Currents Weather Stations Pressure Air Temp Water Temp Dewpoint Dewpoint Depression Visibility Wind Speed Wind Dir Waves Ship Positions

Macaw Arrow

Last reported at 2018-Jul-12 04:26 UTC. Time now 2018-Jul-18 02:48 UTC.
Position N 24°55' W 116°43'.

Length 210 m; draft 10.9 m.

Type: Cargo ship. MMSI: 311000147.

Date/timePositionNaut miles runAvg speedWind from/ knotsBaromVisibWave heightAir tempDewpointWater temp
2018-Jul-12 04:26N 24°55' W 116°43'4112.8
2018-Jul-12 01:15N 25°19' W 117°20'12413.3
2018-Jul-11 15:56N 26°32' W 119°11'715.0
2018-Jul-11 15:29N 26°37' W 119°17'714.0
2018-Jul-11 15:00N 26°40' W 119°23'713.8
2018-Jul-11 14:30N 26°44' W 119°30'3213.6
2018-Jul-11 12:10N 27°03' W 119°58'213.3
2018-Jul-11 12:00N 27°04' W 120°00'713.2
2018-Jul-11 11:30N 27°08' W 120°06'613.0
2018-Jul-11 11:00N 27°12' W 120°12'613.0
2018-Jul-11 10:30N 27°16' W 120°18'712.9
2018-Jul-11 10:00N 27°20' W 120°24'812.9
2018-Jul-11 09:24N 27°24' W 120°31'612.9
2018-Jul-11 08:58N 27°28' W 120°36'612.9
2018-Jul-11 08:29N 27°31' W 120°42'612.8
2018-Jul-11 08:00N 27°35' W 120°47'612.9
2018-Jul-11 07:30N 27°39' W 120°53'712.9
2018-Jul-11 06:59N 27°43' W 120°59'612.8
2018-Jul-11 06:30N 27°46' W 121°05'612.9
2018-Jul-11 06:00N 27°50' W 121°11'612.8
2018-Jul-11 05:30N 27°54' W 121°17'613.1
2018-Jul-11 05:00N 27°57' W 121°23'713.0
2018-Jul-11 04:30N 28°01' W 121°29'813.1
2018-Jul-11 03:55N 28°06' W 121°36'613.2
2018-Jul-11 03:30N 28°09' W 121°41'613.0
2018-Jul-11 03:00N 28°13' W 121°47'713.0
2018-Jul-11 02:30N 28°17' W 121°53'713.0
2018-Jul-11 02:00N 28°21' W 121°59'712.9
2018-Jul-11 01:30N 28°25' W 122°05'612.9
2018-Jul-11 01:00N 28°28' W 122°10'712.9
2018-Jul-11 00:29N 28°32' W 122°17'612.9
2018-Jul-11 00:00N 28°36' W 122°22'612.8
2018-Jul-10 23:30N 28°40' W 122°28'612.7
2018-Jul-10 23:00N 28°44' W 122°34'712.7
2018-Jul-10 22:28N 28°47' W 122°40'612.6
2018-Jul-10 22:00N 28°51' W 122°46'612.7
2018-Jul-10 21:30N 28°54' W 122°52'612.8
2018-Jul-10 21:00N 28°58' W 122°58'712.7
2018-Jul-10 20:29N 29°02' W 123°04'612.6
2018-Jul-10 20:00N 29°06' W 123°09'612.6
2018-Jul-10 19:30N 29°09' W 123°15'612.7
2018-Jul-10 19:00N 29°13' W 123°21'612.8
2018-Jul-10 18:30N 29°17' W 123°27'712.7
2018-Jul-10 17:59N 29°21' W 123°33'612.7
2018-Jul-10 17:30N 29°24' W 123°39'612.8
2018-Jul-10 17:00N 29°28' W 123°45'612.7
2018-Jul-10 16:30N 29°32' W 123°50'612.9
2018-Jul-10 16:00N 29°36' W 123°56'713.7
2018-Jul-10 15:30N 29°40' W 124°03'712.7
2018-Jul-10 14:58N 29°44' W 124°09'612.5
2018-Jul-10 14:30N 29°47' W 124°15'612.4
2018-Jul-10 14:00N 29°51' W 124°20'612.5
2018-Jul-10 13:30N 29°55' W 124°26'712.4
2018-Jul-10 12:57N 29°59' W 124°32'612.5
2018-Jul-10 12:30N 30°02' W 124°38'612.6
2018-Jul-10 12:00N 30°06' W 124°44'612.6
2018-Jul-10 11:30N 30°09' W 124°50'612.6
2018-Jul-10 11:00N 30°13' W 124°56'612.3
2018-Jul-10 10:30N 30°17' W 125°01'912.3
2018-Jul-10 09:47N 30°22' W 125°10'512.6
2018-Jul-10 09:25N 30°25' W 125°14'512.5
2018-Jul-10 09:00N 30°27' W 125°19'612.6
2018-Jul-10 08:30N 30°31' W 125°25'612.5
2018-Jul-10 08:00N 30°35' W 125°30'612.6
2018-Jul-10 07:30N 30°39' W 125°36'612.5
2018-Jul-10 07:00N 30°43' W 125°42'612.4
2018-Jul-10 06:30N 30°46' W 125°48'612.5
2018-Jul-10 06:00N 30°50' W 125°54'612.5
2018-Jul-10 05:30N 30°53' W 126°00'612.4
2018-Jul-10 05:00N 30°56' W 126°06'612.4
2018-Jul-10 04:30N 30°60' W 126°12'612.4
2018-Jul-10 04:00N 31°03' W 126°18'612.6
2018-Jul-10 03:30N 31°07' W 126°25'712.4
2018-Jul-10 02:58N 31°10' W 126°31'1112.2
2018-Jul-10 02:02N 31°17' W 126°42'011.7
2018-Jul-10 02:00N 31°17' W 126°42'611.3
2018-Jul-10 01:30N 31°19' W 126°48'612.2
2018-Jul-10 01:00N 31°23' W 126°54'612.2
2018-Jul-10 00:30N 31°26' W 127°01'612.2
2018-Jul-09 23:59N 31°29' W 127°07'612.2
2018-Jul-09 23:30N 31°32' W 127°13'612.2
2018-Jul-09 23:00N 31°35' W 127°19'612.1
2018-Jul-09 22:30N 31°39' W 127°25'612.1
2018-Jul-09 22:00N 31°42' W 127°31'612.0
2018-Jul-09 21:30N 31°45' W 127°37'612.2
2018-Jul-09 21:00N 31°48' W 127°43'612.1
2018-Jul-09 20:31N 31°51' W 127°49'612.0
2018-Jul-09 20:01N 31°55' W 127°55'612.1
2018-Jul-09 19:30N 31°58' W 128°01'612.6
2018-Jul-09 19:01N 32°01' W 128°08'612.6
2018-Jul-09 18:30N 32°04' W 128°14'712.6
2018-Jul-09 17:59N 32°08' W 128°20'612.5
2018-Jul-09 17:30N 32°11' W 128°27'713.4
2018-Jul-09 17:00N 32°14' W 128°33'613.0
2018-Jul-09 16:30N 32°18' W 128°40'612.5
2018-Jul-09 16:00N 32°21' W 128°46'612.5
2018-Jul-09 15:30N 32°24' W 128°52'612.5
2018-Jul-09 15:00N 32°28' W 128°58'612.6
2018-Jul-09 14:31N 32°31' W 129°05'612.4
2018-Jul-09 14:00N 32°35' W 129°11'612.6
2018-Jul-09 13:31N 32°38' W 129°17'612.7
2018-Jul-09 13:00N 32°41' W 129°24'612.9
2018-Jul-09 12:30N 32°44' W 129°30'612.8
2018-Jul-09 12:00N 32°48' W 129°37'713.0
2018-Jul-09 11:30N 32°51' W 129°43'612.9
2018-Jul-09 11:00N 32°55' W 129°50'612.9
2018-Jul-09 10:30N 32°58' W 129°57'612.9
2018-Jul-09 10:00N 33°01' W 130°03'612.9
2018-Jul-09 09:30N 33°04' W 130°10'713.0
2018-Jul-09 09:00N 33°07' W 130°17'612.9
2018-Jul-09 08:30N 33°10' W 130°24'713.0
2018-Jul-09 07:59N 33°13' W 130°31'912.9
2018-Jul-09 07:18N 33°18' W 130°40'513.0
2018-Jul-09 06:57N 33°20' W 130°45'612.9
2018-Jul-09 06:30N 33°23' W 130°51'612.8
2018-Jul-09 06:00N 33°26' W 130°58'612.7
2018-Jul-09 05:30N 33°29' W 131°05'612.4
2018-Jul-09 05:00N 33°31' W 131°11'612.5
2018-Jul-09 04:30N 33°34' W 131°18'612.5
2018-Jul-09 04:00N 33°37' W 131°24'612.6
2018-Jul-09 03:31N 33°40' W 131°31'1112.6
2018-Jul-09 02:38N 33°45' W 131°43'212.7
2018-Jul-09 02:30N 33°46' W 131°45'612.8
2018-Jul-09 02:00N 33°49' W 131°51'712.7
2018-Jul-09 01:29N 33°52' W 131°58'  
Track history (hours):
 
Tides and Currents Weather Stations Pressure Air Temp Water Temp Dewpoint Dewpoint Depression Visibility Wind Speed Wind Dir Waves Ship Positions

Macaw Arrow

Last reported at 2018-Jul-12 04:26 UTC. Time now 2018-Jul-18 02:48 UTC.
Position N 24°55' W 116°43'.

Length 210 m; draft 10.9 m.

Type: Cargo ship. MMSI: 311000147.

Date/timePositionNaut miles runAvg speedWind from/ knotsBaromVisibWave heightAir tempDewpointWater temp
2018-Jul-12 04:26N 24°55' W 116°43'4112.8
2018-Jul-12 01:15N 25°19' W 117°20'12413.3
2018-Jul-11 15:56N 26°32' W 119°11'715.0
2018-Jul-11 15:29N 26°37' W 119°17'714.0
2018-Jul-11 15:00N 26°40' W 119°23'713.8
2018-Jul-11 14:30N 26°44' W 119°30'3213.6
2018-Jul-11 12:10N 27°03' W 119°58'213.3
2018-Jul-11 12:00N 27°04' W 120°00'713.2
2018-Jul-11 11:30N 27°08' W 120°06'613.0
2018-Jul-11 11:00N 27°12' W 120°12'613.0
2018-Jul-11 10:30N 27°16' W 120°18'712.9
2018-Jul-11 10:00N 27°20' W 120°24'812.9
2018-Jul-11 09:24N 27°24' W 120°31'612.9
2018-Jul-11 08:58N 27°28' W 120°36'612.9
2018-Jul-11 08:29N 27°31' W 120°42'612.8
2018-Jul-11 08:00N 27°35' W 120°47'612.9
2018-Jul-11 07:30N 27°39' W 120°53'712.9
2018-Jul-11 06:59N 27°43' W 120°59'612.8
2018-Jul-11 06:30N 27°46' W 121°05'612.9
2018-Jul-11 06:00N 27°50' W 121°11'612.8
2018-Jul-11 05:30N 27°54' W 121°17'613.1
2018-Jul-11 05:00N 27°57' W 121°23'713.0
2018-Jul-11 04:30N 28°01' W 121°29'813.1
2018-Jul-11 03:55N 28°06' W 121°36'613.2
2018-Jul-11 03:30N 28°09' W 121°41'613.0
2018-Jul-11 03:00N 28°13' W 121°47'713.0
2018-Jul-11 02:30N 28°17' W 121°53'713.0
2018-Jul-11 02:00N 28°21' W 121°59'712.9
2018-Jul-11 01:30N 28°25' W 122°05'612.9
2018-Jul-11 01:00N 28°28' W 122°10'712.9
2018-Jul-11 00:29N 28°32' W 122°17'612.9
2018-Jul-11 00:00N 28°36' W 122°22'612.8
2018-Jul-10 23:30N 28°40' W 122°28'612.7
2018-Jul-10 23:00N 28°44' W 122°34'712.7
2018-Jul-10 22:28N 28°47' W 122°40'612.6
2018-Jul-10 22:00N 28°51' W 122°46'612.7
2018-Jul-10 21:30N 28°54' W 122°52'612.8
2018-Jul-10 21:00N 28°58' W 122°58'712.7
2018-Jul-10 20:29N 29°02' W 123°04'612.6
2018-Jul-10 20:00N 29°06' W 123°09'612.6
2018-Jul-10 19:30N 29°09' W 123°15'612.7
2018-Jul-10 19:00N 29°13' W 123°21'612.8
2018-Jul-10 18:30N 29°17' W 123°27'712.7
2018-Jul-10 17:59N 29°21' W 123°33'612.7
2018-Jul-10 17:30N 29°24' W 123°39'612.8
2018-Jul-10 17:00N 29°28' W 123°45'612.7
2018-Jul-10 16:30N 29°32' W 123°50'612.9
2018-Jul-10 16:00N 29°36' W 123°56'713.7
2018-Jul-10 15:30N 29°40' W 124°03'712.7
2018-Jul-10 14:58N 29°44' W 124°09'612.5
2018-Jul-10 14:30N 29°47' W 124°15'612.4
2018-Jul-10 14:00N 29°51' W 124°20'612.5
2018-Jul-10 13:30N 29°55' W 124°26'712.4
2018-Jul-10 12:57N 29°59' W 124°32'612.5
2018-Jul-10 12:30N 30°02' W 124°38'612.6
2018-Jul-10 12:00N 30°06' W 124°44'612.6
2018-Jul-10 11:30N 30°09' W 124°50'612.6
2018-Jul-10 11:00N 30°13' W 124°56'612.3
2018-Jul-10 10:30N 30°17' W 125°01'912.3
2018-Jul-10 09:47N 30°22' W 125°10'512.6
2018-Jul-10 09:25N 30°25' W 125°14'512.5
2018-Jul-10 09:00N 30°27' W 125°19'612.6
2018-Jul-10 08:30N 30°31' W 125°25'612.5
2018-Jul-10 08:00N 30°35' W 125°30'612.6
2018-Jul-10 07:30N 30°39' W 125°36'612.5
2018-Jul-10 07:00N 30°43' W 125°42'612.4
2018-Jul-10 06:30N 30°46' W 125°48'612.5
2018-Jul-10 06:00N 30°50' W 125°54'612.5
2018-Jul-10 05:30N 30°53' W 126°00'612.4
2018-Jul-10 05:00N 30°56' W 126°06'612.4
2018-Jul-10 04:30N 30°60' W 126°12'612.4
2018-Jul-10 04:00N 31°03' W 126°18'612.6
2018-Jul-10 03:30N 31°07' W 126°25'712.4
2018-Jul-10 02:58N 31°10' W 126°31'1112.2
2018-Jul-10 02:02N 31°17' W 126°42'011.7
2018-Jul-10 02:00N 31°17' W 126°42'611.3
2018-Jul-10 01:30N 31°19' W 126°48'612.2
2018-Jul-10 01:00N 31°23' W 126°54'612.2
2018-Jul-10 00:30N 31°26' W 127°01'612.2
2018-Jul-09 23:59N 31°29' W 127°07'612.2
2018-Jul-09 23:30N 31°32' W 127°13'612.2
2018-Jul-09 23:00N 31°35' W 127°19'612.1
2018-Jul-09 22:30N 31°39' W 127°25'612.1
2018-Jul-09 22:00N 31°42' W 127°31'612.0
2018-Jul-09 21:30N 31°45' W 127°37'612.2
2018-Jul-09 21:00N 31°48' W 127°43'612.1
2018-Jul-09 20:31N 31°51' W 127°49'612.0
2018-Jul-09 20:01N 31°55' W 127°55'612.1
2018-Jul-09 19:30N 31°58' W 128°01'612.6
2018-Jul-09 19:01N 32°01' W 128°08'612.6
2018-Jul-09 18:30N 32°04' W 128°14'712.6
2018-Jul-09 17:59N 32°08' W 128°20'612.5
2018-Jul-09 17:30N 32°11' W 128°27'713.4
2018-Jul-09 17:00N 32°14' W 128°33'613.0
2018-Jul-09 16:30N 32°18' W 128°40'612.5
2018-Jul-09 16:00N 32°21' W 128°46'612.5
2018-Jul-09 15:30N 32°24' W 128°52'612.5
2018-Jul-09 15:00N 32°28' W 128°58'612.6
2018-Jul-09 14:31N 32°31' W 129°05'612.4
2018-Jul-09 14:00N 32°35' W 129°11'612.6
2018-Jul-09 13:31N 32°38' W 129°17'612.7
2018-Jul-09 13:00N 32°41' W 129°24'612.9
2018-Jul-09 12:30N 32°44' W 129°30'612.8
2018-Jul-09 12:00N 32°48' W 129°37'713.0
2018-Jul-09 11:30N 32°51' W 129°43'612.9
2018-Jul-09 11:00N 32°55' W 129°50'612.9
2018-Jul-09 10:30N 32°58' W 129°57'612.9
2018-Jul-09 10:00N 33°01' W 130°03'612.9
2018-Jul-09 09:30N 33°04' W 130°10'713.0
2018-Jul-09 09:00N 33°07' W 130°17'612.9
2018-Jul-09 08:30N 33°10' W 130°24'713.0
2018-Jul-09 07:59N 33°13' W 130°31'912.9
2018-Jul-09 07:18N 33°18' W 130°40'513.0
2018-Jul-09 06:57N 33°20' W 130°45'612.9
2018-Jul-09 06:30N 33°23' W 130°51'612.8
2018-Jul-09 06:00N 33°26' W 130°58'612.7
2018-Jul-09 05:30N 33°29' W 131°05'612.4
2018-Jul-09 05:00N 33°31' W 131°11'612.5
2018-Jul-09 04:30N 33°34' W 131°18'612.5
2018-Jul-09 04:00N 33°37' W 131°24'612.6
2018-Jul-09 03:31N 33°40' W 131°31'1112.6
2018-Jul-09 02:38N 33°45' W 131°43'212.7
2018-Jul-09 02:30N 33°46' W 131°45'612.8
2018-Jul-09 02:00N 33°49' W 131°51'712.7
2018-Jul-09 01:29N 33°52' W 131°58'  

Dump ship's entire track history